sensor_id;sensor_type;location;lat;lon;timestamp;P1;durP1;ratioP1;P2;durP2;ratioP2
15155;SDS011;7678;50.058;8.306;2023-03-14T00:01:12;3.93;;;1.90;;
15155;SDS011;7678;50.058;8.306;2023-03-14T00:03:46;5.80;;;2.17;;
15155;SDS011;7678;50.058;8.306;2023-03-14T00:06:14;3.87;;;1.77;;
15155;SDS011;7678;50.058;8.306;2023-03-14T00:08:44;2.97;;;1.93;;
15155;SDS011;7678;50.058;8.306;2023-03-14T00:11:12;5.17;;;2.30;;
15155;SDS011;7678;50.058;8.306;2023-03-14T00:13:46;6.80;;;1.90;;
15155;SDS011;7678;50.058;8.306;2023-03-14T00:16:18;2.73;;;1.80;;
15155;SDS011;7678;50.058;8.306;2023-03-14T00:18:46;4.60;;;2.17;;
15155;SDS011;7678;50.058;8.306;2023-03-14T00:21:14;6.37;;;2.10;;
15155;SDS011;7678;50.058;8.306;2023-03-14T00:23:43;6.77;;;1.90;;
15155;SDS011;7678;50.058;8.306;2023-03-14T00:26:11;6.30;;;2.33;;
15155;SDS011;7678;50.058;8.306;2023-03-14T00:28:41;5.87;;;2.23;;
15155;SDS011;7678;50.058;8.306;2023-03-14T00:31:11;7.57;;;2.00;;
15155;SDS011;7678;50.058;8.306;2023-03-14T00:33:41;5.73;;;2.00;;
15155;SDS011;7678;50.058;8.306;2023-03-14T00:36:10;8.80;;;1.83;;
15155;SDS011;7678;50.058;8.306;2023-03-14T00:38:40;3.20;;;1.77;;
15155;SDS011;7678;50.058;8.306;2023-03-14T00:41:10;5.73;;;1.93;;
15155;SDS011;7678;50.058;8.306;2023-03-14T00:43:39;6.17;;;1.93;;
15155;SDS011;7678;50.058;8.306;2023-03-14T00:46:08;6.37;;;2.20;;
15155;SDS011;7678;50.058;8.306;2023-03-14T00:48:36;7.53;;;2.43;;
15155;SDS011;7678;50.058;8.306;2023-03-14T00:51:06;8.10;;;2.13;;
15155;SDS011;7678;50.058;8.306;2023-03-14T00:53:38;6.37;;;1.80;;
15155;SDS011;7678;50.058;8.306;2023-03-14T00:56:08;5.93;;;1.87;;
15155;SDS011;7678;50.058;8.306;2023-03-14T00:58:37;6.13;;;1.77;;
15155;SDS011;7678;50.058;8.306;2023-03-14T01:01:06;5.37;;;1.80;;
15155;SDS011;7678;50.058;8.306;2023-03-14T01:03:35;7.70;;;2.27;;
15155;SDS011;7678;50.058;8.306;2023-03-14T01:06:08;7.33;;;1.57;;
15155;SDS011;7678;50.058;8.306;2023-03-14T01:08:37;10.43;;;2.57;;
15155;SDS011;7678;50.058;8.306;2023-03-14T01:11:06;5.57;;;1.60;;
15155;SDS011;7678;50.058;8.306;2023-03-14T01:13:36;3.70;;;1.50;;
15155;SDS011;7678;50.058;8.306;2023-03-14T01:16:04;8.63;;;2.23;;
15155;SDS011;7678;50.058;8.306;2023-03-14T01:18:34;6.70;;;1.90;;
15155;SDS011;7678;50.058;8.306;2023-03-14T01:21:03;7.90;;;2.40;;
15155;SDS011;7678;50.058;8.306;2023-03-14T01:23:38;3.93;;;1.70;;
15155;SDS011;7678;50.058;8.306;2023-03-14T01:26:07;8.03;;;1.67;;
15155;SDS011;7678;50.058;8.306;2023-03-14T01:28:36;5.53;;;1.70;;
15155;SDS011;7678;50.058;8.306;2023-03-14T01:31:05;6.47;;;2.00;;
15155;SDS011;7678;50.058;8.306;2023-03-14T01:33:34;5.30;;;1.70;;
15155;SDS011;7678;50.058;8.306;2023-03-14T01:36:02;5.90;;;1.70;;
15155;SDS011;7678;50.058;8.306;2023-03-14T01:38:35;6.93;;;1.90;;
15155;SDS011;7678;50.058;8.306;2023-03-14T01:41:05;4.23;;;1.50;;
15155;SDS011;7678;50.058;8.306;2023-03-14T01:43:34;7.43;;;1.93;;
15155;SDS011;7678;50.058;8.306;2023-03-14T01:46:12;5.73;;;2.03;;
15155;SDS011;7678;50.058;8.306;2023-03-14T01:48:48;10.53;;;1.87;;
15155;SDS011;7678;50.058;8.306;2023-03-14T01:51:21;13.10;;;2.27;;
15155;SDS011;7678;50.058;8.306;2023-03-14T01:53:57;6.67;;;1.60;;
15155;SDS011;7678;50.058;8.306;2023-03-14T01:56:30;9.03;;;1.90;;
15155;SDS011;7678;50.058;8.306;2023-03-14T01:58:58;5.77;;;1.80;;
15155;SDS011;7678;50.058;8.306;2023-03-14T02:01:28;11.20;;;2.37;;
15155;SDS011;7678;50.058;8.306;2023-03-14T02:03:58;4.43;;;1.40;;
15155;SDS011;7678;50.058;8.306;2023-03-14T02:06:31;9.20;;;2.73;;
15155;SDS011;7678;50.058;8.306;2023-03-14T02:09:06;6.87;;;1.70;;
15155;SDS011;7678;50.058;8.306;2023-03-14T02:11:34;4.53;;;1.83;;
15155;SDS011;7678;50.058;8.306;2023-03-14T02:14:02;6.33;;;1.70;;
15155;SDS011;7678;50.058;8.306;2023-03-14T02:16:32;5.20;;;1.67;;
15155;SDS011;7678;50.058;8.306;2023-03-14T02:19:01;4.00;;;1.77;;
15155;SDS011;7678;50.058;8.306;2023-03-14T02:21:34;5.07;;;1.67;;
15155;SDS011;7678;50.058;8.306;2023-03-14T02:24:15;5.53;;;1.50;;
15155;SDS011;7678;50.058;8.306;2023-03-14T02:27:04;6.53;;;2.07;;
15155;SDS011;7678;50.058;8.306;2023-03-14T02:29:37;5.60;;;1.40;;
15155;SDS011;7678;50.058;8.306;2023-03-14T02:32:10;9.57;;;1.70;;
15155;SDS011;7678;50.058;8.306;2023-03-14T02:34:38;9.73;;;1.63;;
15155;SDS011;7678;50.058;8.306;2023-03-14T02:37:09;6.43;;;1.70;;
15155;SDS011;7678;50.058;8.306;2023-03-14T02:39:38;7.10;;;2.07;;
15155;SDS011;7678;50.058;8.306;2023-03-14T02:42:12;9.67;;;2.43;;
15155;SDS011;7678;50.058;8.306;2023-03-14T02:44:50;6.63;;;2.20;;
15155;SDS011;7678;50.058;8.306;2023-03-14T02:47:21;5.73;;;2.17;;
15155;SDS011;7678;50.058;8.306;2023-03-14T02:49:58;4.37;;;2.20;;
15155;SDS011;7678;50.058;8.306;2023-03-14T02:52:29;6.23;;;1.63;;
15155;SDS011;7678;50.058;8.306;2023-03-14T02:54:57;5.00;;;1.40;;
15155;SDS011;7678;50.058;8.306;2023-03-14T02:57:27;6.23;;;2.43;;
15155;SDS011;7678;50.058;8.306;2023-03-14T02:59:57;4.37;;;2.20;;
15155;SDS011;7678;50.058;8.306;2023-03-14T03:02:26;7.50;;;2.27;;
15155;SDS011;7678;50.058;8.306;2023-03-14T03:04:55;8.53;;;2.13;;
15155;SDS011;7678;50.058;8.306;2023-03-14T03:07:22;6.97;;;2.03;;
15155;SDS011;7678;50.058;8.306;2023-03-14T03:09:50;3.90;;;1.57;;
15155;SDS011;7678;50.058;8.306;2023-03-14T03:12:18;4.67;;;1.87;;
15155;SDS011;7678;50.058;8.306;2023-03-14T03:14:48;7.27;;;1.90;;
15155;SDS011;7678;50.058;8.306;2023-03-14T03:17:16;5.67;;;1.87;;
15155;SDS011;7678;50.058;8.306;2023-03-14T03:19:44;6.87;;;1.90;;
15155;SDS011;7678;50.058;8.306;2023-03-14T03:22:12;5.37;;;1.50;;
15155;SDS011;7678;50.058;8.306;2023-03-14T03:24:39;11.40;;;2.30;;
15155;SDS011;7678;50.058;8.306;2023-03-14T03:27:07;6.83;;;1.90;;
15155;SDS011;7678;50.058;8.306;2023-03-14T03:29:35;7.37;;;2.20;;
15155;SDS011;7678;50.058;8.306;2023-03-14T03:32:05;6.57;;;1.70;;
15155;SDS011;7678;50.058;8.306;2023-03-14T03:34:33;5.43;;;1.57;;
15155;SDS011;7678;50.058;8.306;2023-03-14T03:37:01;5.90;;;1.60;;
15155;SDS011;7678;50.058;8.306;2023-03-14T03:39:29;6.13;;;1.83;;
15155;SDS011;7678;50.058;8.306;2023-03-14T03:41:57;6.13;;;1.80;;
15155;SDS011;7678;50.058;8.306;2023-03-14T03:44:24;5.20;;;1.60;;
15155;SDS011;7678;50.058;8.306;2023-03-14T03:46:52;5.70;;;1.60;;
15155;SDS011;7678;50.058;8.306;2023-03-14T03:49:22;8.00;;;1.80;;
15155;SDS011;7678;50.058;8.306;2023-03-14T03:52:03;8.37;;;1.60;;
15155;SDS011;7678;50.058;8.306;2023-03-14T03:54:31;6.13;;;1.63;;
15155;SDS011;7678;50.058;8.306;2023-03-14T03:56:59;7.57;;;1.73;;
15155;SDS011;7678;50.058;8.306;2023-03-14T03:59:27;5.20;;;1.50;;
15155;SDS011;7678;50.058;8.306;2023-03-14T04:01:55;8.40;;;2.13;;
15155;SDS011;7678;50.058;8.306;2023-03-14T04:04:24;7.33;;;2.10;;
15155;SDS011;7678;50.058;8.306;2023-03-14T04:06:52;7.60;;;1.73;;
15155;SDS011;7678;50.058;8.306;2023-03-14T04:09:20;11.07;;;2.13;;
15155;SDS011;7678;50.058;8.306;2023-03-14T04:11:48;7.13;;;1.90;;
15155;SDS011;7678;50.058;8.306;2023-03-14T04:14:16;4.90;;;1.50;;
15155;SDS011;7678;50.058;8.306;2023-03-14T04:16:44;4.50;;;1.80;;
15155;SDS011;7678;50.058;8.306;2023-03-14T04:19:12;6.33;;;1.80;;
15155;SDS011;7678;50.058;8.306;2023-03-14T04:21:41;6.97;;;2.13;;
15155;SDS011;7678;50.058;8.306;2023-03-14T04:24:11;8.67;;;2.13;;
15155;SDS011;7678;50.058;8.306;2023-03-14T04:26:38;8.43;;;2.07;;
15155;SDS011;7678;50.058;8.306;2023-03-14T04:29:07;6.37;;;1.70;;
15155;SDS011;7678;50.058;8.306;2023-03-14T04:31:37;4.87;;;1.20;;
15155;SDS011;7678;50.058;8.306;2023-03-14T04:34:05;5.67;;;2.50;;
15155;SDS011;7678;50.058;8.306;2023-03-14T04:36:33;4.57;;;1.60;;
15155;SDS011;7678;50.058;8.306;2023-03-14T04:39:06;4.87;;;1.60;;
15155;SDS011;7678;50.058;8.306;2023-03-14T04:41:34;5.67;;;1.63;;
15155;SDS011;7678;50.058;8.306;2023-03-14T04:44:02;5.20;;;1.20;;
15155;SDS011;7678;50.058;8.306;2023-03-14T04:46:30;5.53;;;1.40;;
15155;SDS011;7678;50.058;8.306;2023-03-14T04:48:57;4.77;;;1.43;;
15155;SDS011;7678;50.058;8.306;2023-03-14T04:51:25;6.80;;;1.70;;
15155;SDS011;7678;50.058;8.306;2023-03-14T04:53:54;5.07;;;1.57;;
15155;SDS011;7678;50.058;8.306;2023-03-14T04:56:23;6.10;;;1.50;;
15155;SDS011;7678;50.058;8.306;2023-03-14T04:58:51;5.40;;;1.40;;
15155;SDS011;7678;50.058;8.306;2023-03-14T05:01:19;4.20;;;1.30;;
15155;SDS011;7678;50.058;8.306;2023-03-14T05:03:47;7.00;;;1.60;;
15155;SDS011;7678;50.058;8.306;2023-03-14T05:06:15;5.23;;;1.40;;
15155;SDS011;7678;50.058;8.306;2023-03-14T05:08:43;5.43;;;2.00;;
15155;SDS011;7678;50.058;8.306;2023-03-14T05:11:11;4.70;;;1.30;;
15155;SDS011;7678;50.058;8.306;2023-03-14T05:13:40;2.87;;;1.40;;
15155;SDS011;7678;50.058;8.306;2023-03-14T05:16:09;4.17;;;1.27;;
15155;SDS011;7678;50.058;8.306;2023-03-14T05:18:38;5.77;;;1.67;;
15155;SDS011;7678;50.058;8.306;2023-03-14T05:21:06;3.70;;;1.10;;
15155;SDS011;7678;50.058;8.306;2023-03-14T05:23:34;5.83;;;1.30;;
15155;SDS011;7678;50.058;8.306;2023-03-14T05:26:02;4.00;;;1.53;;
15155;SDS011;7678;50.058;8.306;2023-03-14T05:28:30;3.73;;;1.40;;
15155;SDS011;7678;50.058;8.306;2023-03-14T05:30:59;4.47;;;1.40;;
15155;SDS011;7678;50.058;8.306;2023-03-14T05:33:27;5.67;;;1.50;;
15155;SDS011;7678;50.058;8.306;2023-03-14T05:35:55;5.67;;;1.40;;
15155;SDS011;7678;50.058;8.306;2023-03-14T05:38:23;4.17;;;1.30;;
15155;SDS011;7678;50.058;8.306;2023-03-14T05:40:51;5.50;;;1.50;;
15155;SDS011;7678;50.058;8.306;2023-03-14T05:43:19;4.43;;;1.30;;
15155;SDS011;7678;50.058;8.306;2023-03-14T05:45:47;3.03;;;1.20;;
15155;SDS011;7678;50.058;8.306;2023-03-14T05:48:16;4.60;;;1.30;;
15155;SDS011;7678;50.058;8.306;2023-03-14T05:50:45;5.50;;;1.43;;
15155;SDS011;7678;50.058;8.306;2023-03-14T05:53:12;3.43;;;1.20;;
15155;SDS011;7678;50.058;8.306;2023-03-14T05:55:41;4.10;;;1.40;;
15155;SDS011;7678;50.058;8.306;2023-03-14T05:58:09;5.80;;;1.20;;
15155;SDS011;7678;50.058;8.306;2023-03-14T06:00:37;3.43;;;1.10;;
15155;SDS011;7678;50.058;8.306;2023-03-14T06:03:05;5.43;;;1.30;;
15155;SDS011;7678;50.058;8.306;2023-03-14T06:05:35;2.53;;;0.90;;
15155;SDS011;7678;50.058;8.306;2023-03-14T06:08:03;3.13;;;1.20;;
15155;SDS011;7678;50.058;8.306;2023-03-14T06:10:31;5.40;;;1.20;;
15155;SDS011;7678;50.058;8.306;2023-03-14T06:12:59;2.60;;;1.20;;
15155;SDS011;7678;50.058;8.306;2023-03-14T06:15:27;2.53;;;1.03;;
15155;SDS011;7678;50.058;8.306;2023-03-14T06:17:55;3.73;;;1.23;;
15155;SDS011;7678;50.058;8.306;2023-03-14T06:20:23;4.43;;;1.27;;
15155;SDS011;7678;50.058;8.306;2023-03-14T06:22:53;5.17;;;1.20;;
15155;SDS011;7678;50.058;8.306;2023-03-14T06:25:24;3.73;;;1.23;;
15155;SDS011;7678;50.058;8.306;2023-03-14T06:27:52;5.40;;;1.47;;
15155;SDS011;7678;50.058;8.306;2023-03-14T06:30:20;5.50;;;1.63;;
15155;SDS011;7678;50.058;8.306;2023-03-14T06:32:48;3.90;;;1.60;;
15155;SDS011;7678;50.058;8.306;2023-03-14T06:35:16;3.07;;;1.20;;
15155;SDS011;7678;50.058;8.306;2023-03-14T06:37:44;3.40;;;1.30;;
15155;SDS011;7678;50.058;8.306;2023-03-14T06:40:14;3.20;;;1.77;;
15155;SDS011;7678;50.058;8.306;2023-03-14T06:42:44;2.67;;;1.57;;
15155;SDS011;7678;50.058;8.306;2023-03-14T06:45:12;3.60;;;1.50;;
15155;SDS011;7678;50.058;8.306;2023-03-14T06:47:40;2.93;;;1.33;;
15155;SDS011;7678;50.058;8.306;2023-03-14T06:50:09;3.83;;;1.70;;
15155;SDS011;7678;50.058;8.306;2023-03-14T06:52:37;6.67;;;2.40;;
15155;SDS011;7678;50.058;8.306;2023-03-14T06:55:07;4.23;;;1.87;;
15155;SDS011;7678;50.058;8.306;2023-03-14T06:57:37;3.70;;;1.40;;
15155;SDS011;7678;50.058;8.306;2023-03-14T07:00:05;4.70;;;2.00;;
15155;SDS011;7678;50.058;8.306;2023-03-14T07:02:34;3.87;;;1.53;;
15155;SDS011;7678;50.058;8.306;2023-03-14T07:05:08;2.97;;;1.50;;
15155;SDS011;7678;50.058;8.306;2023-03-14T07:07:37;3.37;;;1.53;;
15155;SDS011;7678;50.058;8.306;2023-03-14T07:10:05;4.77;;;1.83;;
15155;SDS011;7678;50.058;8.306;2023-03-14T07:12:34;2.37;;;1.60;;
15155;SDS011;7678;50.058;8.306;2023-03-14T07:15:04;3.77;;;1.70;;
15155;SDS011;7678;50.058;8.306;2023-03-14T07:17:44;2.40;;;1.40;;
15155;SDS011;7678;50.058;8.306;2023-03-14T07:20:14;6.87;;;1.57;;
15155;SDS011;7678;50.058;8.306;2023-03-14T07:22:42;4.27;;;2.10;;
15155;SDS011;7678;50.058;8.306;2023-03-14T07:25:10;3.93;;;1.87;;
15155;SDS011;7678;50.058;8.306;2023-03-14T07:27:39;5.17;;;1.73;;
15155;SDS011;7678;50.058;8.306;2023-03-14T07:30:10;5.17;;;1.70;;
15155;SDS011;7678;50.058;8.306;2023-03-14T07:32:39;4.63;;;1.70;;
15155;SDS011;7678;50.058;8.306;2023-03-14T07:35:08;3.37;;;1.47;;
15155;SDS011;7678;50.058;8.306;2023-03-14T07:37:36;5.60;;;1.30;;
15155;SDS011;7678;50.058;8.306;2023-03-14T07:40:05;2.60;;;1.40;;
15155;SDS011;7678;50.058;8.306;2023-03-14T07:42:36;4.57;;;1.73;;
15155;SDS011;7678;50.058;8.306;2023-03-14T07:45:07;4.47;;;1.40;;
15155;SDS011;7678;50.058;8.306;2023-03-14T07:47:35;7.10;;;1.60;;
15155;SDS011;7678;50.058;8.306;2023-03-14T07:50:04;3.80;;;1.53;;
15155;SDS011;7678;50.058;8.306;2023-03-14T07:52:33;5.17;;;1.70;;
15155;SDS011;7678;50.058;8.306;2023-03-14T07:55:01;4.93;;;1.47;;
15155;SDS011;7678;50.058;8.306;2023-03-14T07:57:29;3.70;;;1.27;;
15155;SDS011;7678;50.058;8.306;2023-03-14T07:59:57;4.70;;;1.63;;
15155;SDS011;7678;50.058;8.306;2023-03-14T08:02:26;2.43;;;1.40;;
15155;SDS011;7678;50.058;8.306;2023-03-14T08:04:54;7.17;;;1.63;;
15155;SDS011;7678;50.058;8.306;2023-03-14T08:07:22;6.20;;;1.93;;
15155;SDS011;7678;50.058;8.306;2023-03-14T08:09:50;3.77;;;1.53;;
15155;SDS011;7678;50.058;8.306;2023-03-14T08:12:18;5.27;;;1.90;;
15155;SDS011;7678;50.058;8.306;2023-03-14T08:14:46;5.10;;;1.73;;
15155;SDS011;7678;50.058;8.306;2023-03-14T08:17:14;5.00;;;1.93;;
15155;SDS011;7678;50.058;8.306;2023-03-14T08:19:44;4.73;;;1.90;;
15155;SDS011;7678;50.058;8.306;2023-03-14T08:22:12;6.03;;;2.70;;
15155;SDS011;7678;50.058;8.306;2023-03-14T08:24:41;6.90;;;1.80;;
15155;SDS011;7678;50.058;8.306;2023-03-14T08:27:09;5.83;;;2.47;;
15155;SDS011;7678;50.058;8.306;2023-03-14T08:29:37;4.33;;;2.10;;
15155;SDS011;7678;50.058;8.306;2023-03-14T08:32:07;4.80;;;1.97;;
15155;SDS011;7678;50.058;8.306;2023-03-14T08:34:35;3.00;;;1.80;;
15155;SDS011;7678;50.058;8.306;2023-03-14T08:37:06;2.37;;;1.50;;
15155;SDS011;7678;50.058;8.306;2023-03-14T08:39:51;8.43;;;1.87;;
15155;SDS011;7678;50.058;8.306;2023-03-14T08:42:19;3.40;;;1.60;;
15155;SDS011;7678;50.058;8.306;2023-03-14T08:44:47;2.60;;;1.40;;
15155;SDS011;7678;50.058;8.306;2023-03-14T08:47:15;2.03;;;1.43;;
15155;SDS011;7678;50.058;8.306;2023-03-14T08:49:43;3.93;;;1.57;;
15155;SDS011;7678;50.058;8.306;2023-03-14T08:52:12;2.80;;;1.47;;
15155;SDS011;7678;50.058;8.306;2023-03-14T08:54:43;4.27;;;1.23;;
15155;SDS011;7678;50.058;8.306;2023-03-14T08:57:11;4.63;;;1.90;;
15155;SDS011;7678;50.058;8.306;2023-03-14T08:59:39;4.20;;;1.77;;
15155;SDS011;7678;50.058;8.306;2023-03-14T09:02:08;5.13;;;2.17;;
15155;SDS011;7678;50.058;8.306;2023-03-14T09:04:38;3.50;;;1.43;;
15155;SDS011;7678;50.058;8.306;2023-03-14T09:07:06;7.87;;;3.13;;
15155;SDS011;7678;50.058;8.306;2023-03-14T09:09:36;3.23;;;1.40;;
15155;SDS011;7678;50.058;8.306;2023-03-14T09:12:04;2.93;;;1.60;;
15155;SDS011;7678;50.058;8.306;2023-03-14T09:14:32;2.60;;;1.10;;
15155;SDS011;7678;50.058;8.306;2023-03-14T09:17:00;5.33;;;1.60;;
15155;SDS011;7678;50.058;8.306;2023-03-14T09:19:30;3.43;;;1.40;;
15155;SDS011;7678;50.058;8.306;2023-03-14T09:21:57;2.67;;;1.20;;
15155;SDS011;7678;50.058;8.306;2023-03-14T09:24:25;3.37;;;1.40;;
15155;SDS011;7678;50.058;8.306;2023-03-14T09:26:55;3.20;;;1.20;;
15155;SDS011;7678;50.058;8.306;2023-03-14T09:29:24;2.80;;;1.20;;
15155;SDS011;7678;50.058;8.306;2023-03-14T09:31:52;4.47;;;1.40;;
15155;SDS011;7678;50.058;8.306;2023-03-14T09:34:20;2.07;;;1.27;;
15155;SDS011;7678;50.058;8.306;2023-03-14T09:36:48;1.50;;;1.30;;
15155;SDS011;7678;50.058;8.306;2023-03-14T09:39:16;3.20;;;1.23;;
15155;SDS011;7678;50.058;8.306;2023-03-14T09:41:44;2.23;;;1.10;;
15155;SDS011;7678;50.058;8.306;2023-03-14T09:44:19;2.50;;;1.27;;
15155;SDS011;7678;50.058;8.306;2023-03-14T09:46:51;4.63;;;1.63;;
15155;SDS011;7678;50.058;8.306;2023-03-14T09:49:23;2.73;;;1.30;;
15155;SDS011;7678;50.058;8.306;2023-03-14T09:51:55;2.83;;;1.27;;
15155;SDS011;7678;50.058;8.306;2023-03-14T09:54:34;4.57;;;1.63;;
15155;SDS011;7678;50.058;8.306;2023-03-14T09:57:04;2.60;;;1.40;;
15155;SDS011;7678;50.058;8.306;2023-03-14T09:59:34;2.77;;;1.40;;
15155;SDS011;7678;50.058;8.306;2023-03-14T10:02:10;3.67;;;1.43;;
15155;SDS011;7678;50.058;8.306;2023-03-14T10:04:41;2.50;;;1.30;;
15155;SDS011;7678;50.058;8.306;2023-03-14T10:07:12;2.20;;;1.40;;
15155;SDS011;7678;50.058;8.306;2023-03-14T10:09:43;3.03;;;1.27;;
15155;SDS011;7678;50.058;8.306;2023-03-14T10:12:11;1.60;;;1.30;;
15155;SDS011;7678;50.058;8.306;2023-03-14T10:14:46;2.03;;;1.00;;
15155;SDS011;7678;50.058;8.306;2023-03-14T10:17:16;5.13;;;1.33;;
15155;SDS011;7678;50.058;8.306;2023-03-14T10:19:53;3.43;;;1.13;;
15155;SDS011;7678;50.058;8.306;2023-03-14T10:22:24;4.50;;;1.20;;
15155;SDS011;7678;50.058;8.306;2023-03-14T10:24:56;1.57;;;0.90;;
15155;SDS011;7678;50.058;8.306;2023-03-14T10:27:28;1.97;;;1.00;;
15155;SDS011;7678;50.058;8.306;2023-03-14T10:30:01;2.57;;;1.00;;
15155;SDS011;7678;50.058;8.306;2023-03-14T10:32:32;3.03;;;1.00;;
15155;SDS011;7678;50.058;8.306;2023-03-14T10:35:06;1.07;;;0.87;;
15155;SDS011;7678;50.058;8.306;2023-03-14T10:37:50;2.03;;;1.13;;
15155;SDS011;7678;50.058;8.306;2023-03-14T10:40:22;3.87;;;1.00;;
15155;SDS011;7678;50.058;8.306;2023-03-14T10:42:57;2.47;;;1.43;;
15155;SDS011;7678;50.058;8.306;2023-03-14T10:45:34;3.30;;;1.30;;
15155;SDS011;7678;50.058;8.306;2023-03-14T10:48:15;2.70;;;1.30;;
15155;SDS011;7678;50.058;8.306;2023-03-14T10:50:49;2.70;;;1.10;;
15155;SDS011;7678;50.058;8.306;2023-03-14T10:53:22;1.50;;;0.90;;
15155;SDS011;7678;50.058;8.306;2023-03-14T10:55:55;1.30;;;0.97;;
15155;SDS011;7678;50.058;8.306;2023-03-14T10:58:26;1.50;;;1.30;;
15155;SDS011;7678;50.058;8.306;2023-03-14T11:01:02;1.43;;;1.20;;
15155;SDS011;7678;50.058;8.306;2023-03-14T11:03:40;3.03;;;1.00;;
15155;SDS011;7678;50.058;8.306;2023-03-14T11:06:16;1.30;;;1.20;;
15155;SDS011;7678;50.058;8.306;2023-03-14T11:08:52;2.20;;;1.60;;
15155;SDS011;7678;50.058;8.306;2023-03-14T11:11:25;4.97;;;2.30;;
15155;SDS011;7678;50.058;8.306;2023-03-14T11:14:00;2.30;;;1.70;;
15155;SDS011;7678;50.058;8.306;2023-03-14T11:16:40;2.80;;;1.87;;
15155;SDS011;7678;50.058;8.306;2023-03-14T11:19:41;2.77;;;1.97;;
15155;SDS011;7678;50.058;8.306;2023-03-14T11:22:21;2.83;;;1.50;;
15155;SDS011;7678;50.058;8.306;2023-03-14T11:25:04;4.03;;;2.40;;
15155;SDS011;7678;50.058;8.306;2023-03-14T11:27:41;2.77;;;2.10;;
15155;SDS011;7678;50.058;8.306;2023-03-14T11:30:15;2.87;;;1.60;;
15155;SDS011;7678;50.058;8.306;2023-03-14T11:32:52;3.23;;;1.40;;
15155;SDS011;7678;50.058;8.306;2023-03-14T11:35:27;4.00;;;1.53;;
15155;SDS011;7678;50.058;8.306;2023-03-14T11:38:00;3.40;;;2.67;;
15155;SDS011;7678;50.058;8.306;2023-03-14T11:40:36;4.87;;;3.63;;
15155;SDS011;7678;50.058;8.306;2023-03-14T11:43:12;2.60;;;1.23;;
15155;SDS011;7678;50.058;8.306;2023-03-14T11:45:47;0.97;;;0.70;;
15155;SDS011;7678;50.058;8.306;2023-03-14T11:48:22;1.33;;;1.00;;
15155;SDS011;7678;50.058;8.306;2023-03-14T11:50:57;1.03;;;0.80;;
15155;SDS011;7678;50.058;8.306;2023-03-14T11:53:36;1.37;;;1.00;;
15155;SDS011;7678;50.058;8.306;2023-03-14T11:56:18;1.87;;;0.40;;
15155;SDS011;7678;50.058;8.306;2023-03-14T11:58:54;0.83;;;0.50;;
15155;SDS011;7678;50.058;8.306;2023-03-14T12:01:45;1.87;;;0.50;;
15155;SDS011;7678;50.058;8.306;2023-03-14T12:04:25;0.50;;;0.30;;
15155;SDS011;7678;50.058;8.306;2023-03-14T12:07:07;1.33;;;0.40;;
15155;SDS011;7678;50.058;8.306;2023-03-14T12:09:43;0.93;;;0.30;;
15155;SDS011;7678;50.058;8.306;2023-03-14T12:12:14;1.77;;;0.40;;
15155;SDS011;7678;50.058;8.306;2023-03-14T12:14:46;2.40;;;0.70;;
15155;SDS011;7678;50.058;8.306;2023-03-14T12:17:22;1.00;;;0.33;;
15155;SDS011;7678;50.058;8.306;2023-03-14T12:20:02;2.17;;;0.50;;
15155;SDS011;7678;50.058;8.306;2023-03-14T12:22:34;1.03;;;0.50;;
15155;SDS011;7678;50.058;8.306;2023-03-14T12:25:05;1.10;;;0.43;;
15155;SDS011;7678;50.058;8.306;2023-03-14T12:27:46;1.30;;;0.30;;
15155;SDS011;7678;50.058;8.306;2023-03-14T12:30:18;1.23;;;0.37;;
15155;SDS011;7678;50.058;8.306;2023-03-14T12:35:51;0.63;;;0.53;;
15155;SDS011;7678;50.058;8.306;2023-03-14T12:38:25;0.67;;;0.60;;
15155;SDS011;7678;50.058;8.306;2023-03-14T12:41:02;0.73;;;0.43;;
15155;SDS011;7678;50.058;8.306;2023-03-14T12:43:33;0.30;;;0.30;;
15155;SDS011;7678;50.058;8.306;2023-03-14T12:46:08;0.33;;;0.33;;
15155;SDS011;7678;50.058;8.306;2023-03-14T12:48:43;0.40;;;0.40;;
15155;SDS011;7678;50.058;8.306;2023-03-14T12:51:14;3.60;;;0.40;;
15155;SDS011;7678;50.058;8.306;2023-03-14T12:53:55;0.23;;;0.23;;
15155;SDS011;7678;50.058;8.306;2023-03-14T12:56:43;0.30;;;0.30;;
15155;SDS011;7678;50.058;8.306;2023-03-14T12:59:27;0.53;;;0.30;;
15155;SDS011;7678;50.058;8.306;2023-03-14T13:01:59;0.20;;;0.20;;
15155;SDS011;7678;50.058;8.306;2023-03-14T13:04:31;0.30;;;0.30;;
15155;SDS011;7678;50.058;8.306;2023-03-14T13:07:10;0.30;;;0.30;;
15155;SDS011;7678;50.058;8.306;2023-03-14T13:12:29;1.27;;;1.00;;
15155;SDS011;7678;50.058;8.306;2023-03-14T13:15:11;1.50;;;0.90;;
15155;SDS011;7678;50.058;8.306;2023-03-14T13:17:45;0.70;;;0.60;;
15155;SDS011;7678;50.058;8.306;2023-03-14T13:20:17;1.30;;;0.90;;
15155;SDS011;7678;50.058;8.306;2023-03-14T13:22:50;1.10;;;0.90;;
15155;SDS011;7678;50.058;8.306;2023-03-14T13:25:18;1.53;;;0.60;;
15155;SDS011;7678;50.058;8.306;2023-03-14T13:27:48;0.60;;;0.60;;
15155;SDS011;7678;50.058;8.306;2023-03-14T13:30:22;0.93;;;0.60;;
15155;SDS011;7678;50.058;8.306;2023-03-14T13:32:53;1.67;;;0.60;;
15155;SDS011;7678;50.058;8.306;2023-03-14T13:35:25;0.50;;;0.50;;
15155;SDS011;7678;50.058;8.306;2023-03-14T13:38:01;0.60;;;0.60;;
15155;SDS011;7678;50.058;8.306;2023-03-14T13:40:38;0.60;;;0.57;;
15155;SDS011;7678;50.058;8.306;2023-03-14T13:43:14;1.20;;;0.53;;
15155;SDS011;7678;50.058;8.306;2023-03-14T13:45:45;0.57;;;0.40;;
15155;SDS011;7678;50.058;8.306;2023-03-14T13:48:17;0.60;;;0.50;;
15155;SDS011;7678;50.058;8.306;2023-03-14T13:50:49;3.53;;;0.60;;
15155;SDS011;7678;50.058;8.306;2023-03-14T13:53:20;1.17;;;0.80;;
15155;SDS011;7678;50.058;8.306;2023-03-14T13:55:49;0.53;;;0.53;;
15155;SDS011;7678;50.058;8.306;2023-03-14T13:58:20;0.73;;;0.73;;
15155;SDS011;7678;50.058;8.306;2023-03-14T14:03:42;0.80;;;0.57;;
15155;SDS011;7678;50.058;8.306;2023-03-14T14:06:19;1.30;;;0.70;;
15155;SDS011;7678;50.058;8.306;2023-03-14T14:08:54;1.53;;;0.70;;
15155;SDS011;7678;50.058;8.306;2023-03-14T14:11:28;1.80;;;0.90;;
15155;SDS011;7678;50.058;8.306;2023-03-14T14:14:15;1.10;;;0.70;;
15155;SDS011;7678;50.058;8.306;2023-03-14T14:16:46;0.87;;;0.70;;
15155;SDS011;7678;50.058;8.306;2023-03-14T14:19:18;0.80;;;0.80;;
15155;SDS011;7678;50.058;8.306;2023-03-14T14:21:48;0.80;;;0.60;;
15155;SDS011;7678;50.058;8.306;2023-03-14T14:24:19;1.40;;;0.87;;
15155;SDS011;7678;50.058;8.306;2023-03-14T14:26:50;0.60;;;0.60;;
15155;SDS011;7678;50.058;8.306;2023-03-14T14:29:23;1.50;;;0.90;;
15155;SDS011;7678;50.058;8.306;2023-03-14T14:32:00;1.03;;;0.80;;
15155;SDS011;7678;50.058;8.306;2023-03-14T14:34:32;0.73;;;0.60;;
15155;SDS011;7678;50.058;8.306;2023-03-14T14:37:21;0.87;;;0.60;;
15155;SDS011;7678;50.058;8.306;2023-03-14T14:39:55;0.73;;;0.30;;
15155;SDS011;7678;50.058;8.306;2023-03-14T14:42:26;0.30;;;0.30;;
15155;SDS011;7678;50.058;8.306;2023-03-14T14:44:56;0.30;;;0.30;;
15155;SDS011;7678;50.058;8.306;2023-03-14T14:47:26;0.40;;;0.40;;
15155;SDS011;7678;50.058;8.306;2023-03-14T14:49:58;1.50;;;0.30;;
15155;SDS011;7678;50.058;8.306;2023-03-14T14:52:39;0.40;;;0.40;;
15155;SDS011;7678;50.058;8.306;2023-03-14T14:55:16;0.50;;;0.50;;
15155;SDS011;7678;50.058;8.306;2023-03-14T14:57:49;0.43;;;0.30;;
15155;SDS011;7678;50.058;8.306;2023-03-14T15:00:19;1.13;;;0.40;;
15155;SDS011;7678;50.058;8.306;2023-03-14T15:02:49;0.67;;;0.53;;
15155;SDS011;7678;50.058;8.306;2023-03-14T15:05:21;0.30;;;0.30;;
15155;SDS011;7678;50.058;8.306;2023-03-14T15:07:51;0.37;;;0.37;;
15155;SDS011;7678;50.058;8.306;2023-03-14T15:10:22;0.30;;;0.30;;
15155;SDS011;7678;50.058;8.306;2023-03-14T15:12:52;0.30;;;0.30;;
15155;SDS011;7678;50.058;8.306;2023-03-14T15:15:20;0.40;;;0.40;;
15155;SDS011;7678;50.058;8.306;2023-03-14T15:17:48;0.77;;;0.30;;
15155;SDS011;7678;50.058;8.306;2023-03-14T15:20:17;0.30;;;0.30;;
15155;SDS011;7678;50.058;8.306;2023-03-14T15:22:45;0.53;;;0.53;;
15155;SDS011;7678;50.058;8.306;2023-03-14T15:25:14;1.50;;;1.30;;
15155;SDS011;7678;50.058;8.306;2023-03-14T15:28:05;1.07;;;0.90;;
15155;SDS011;7678;50.058;8.306;2023-03-14T15:30:39;0.90;;;0.83;;
15155;SDS011;7678;50.058;8.306;2023-03-14T15:33:07;13.03;;;8.10;;